Time;durP1;ratioP1;P1;durP2;ratioP2;P2;SDS_P1;SDS_P2;PMS_P1;PMS_P2;Temp;Humidity;BMP_temperature;BMP_pressure;BME280_temperature;BME280_humidity;BME280_pressure;Samples;Min_cycle;Max_cycle;Signal;HPM_P1;HPM_P2
2023/08/03 00:02:12;;;;;;;3.45;1.33;;;;;;;15.70;100.00;98854.97;6280605;22;20027;-73
2023/08/03 00:04:38;;;;;;;5.32;1.30;;;;;;;15.71;100.00;98856.44;6280557;22;20043;-73
2023/08/03 00:07:05;;;;;;;1.40;1.30;;;;;;;15.70;100.00;98847.66;6281466;22;20525;-73
2023/08/03 00:09:31;;;;;;;3.13;1.65;;;;;;;15.72;100.00;98847.13;6280125;22;20051;-73
2023/08/03 00:11:58;;;;;;;3.38;1.83;;;;;;;15.71;100.00;98846.41;6281399;22;20016;-74
2023/08/03 00:14:25;;;;;;;1.70;1.60;;;;;;;15.74;100.00;98858.06;6280374;22;20023;-74
2023/08/03 00:16:51;;;;;;;6.47;2.00;;;;;;;15.75;100.00;98848.78;6253869;22;20008;-74
2023/08/03 00:19:18;;;;;;;4.47;1.90;;;;;;;15.76;100.00;98848.25;6280935;22;20016;-74
2023/08/03 00:21:44;;;;;;;5.90;2.25;;;;;;;15.76;100.00;98856.31;6253796;22;20026;-74
2023/08/03 00:24:11;;;;;;;5.03;2.42;;;;;;;15.77;100.00;98852.38;6281483;22;20393;-74
2023/08/03 00:26:38;;;;;;;7.20;2.22;;;;;;;15.78;100.00;98855.78;6280880;22;20380;-74
2023/08/03 00:29:04;;;;;;;4.43;2.28;;;;;;;15.79;100.00;98865.28;6281335;22;20442;-74
2023/08/03 00:31:31;;;;;;;3.33;2.20;;;;;;;15.79;100.00;98876.72;6252441;22;20104;-74
2023/08/03 00:33:57;;;;;;;4.90;2.47;;;;;;;15.81;100.00;98881.59;6281212;22;20019;-74
2023/08/03 00:36:24;;;;;;;8.90;2.53;;;;;;;15.82;100.00;98889.13;6253348;22;20020;-74
2023/08/03 00:38:50;;;;;;;5.78;2.40;;;;;;;15.83;100.00;98887.88;6281326;22;20012;-75
2023/08/03 00:41:17;;;;;;;6.07;2.22;;;;;;;15.86;100.00;98894.16;6281260;22;20414;-73
2023/08/03 00:43:44;;;;;;;8.75;2.83;;;;;;;15.87;100.00;98895.59;6253810;22;20020;-73
2023/08/03 00:46:12;;;;;;;8.77;2.70;;;;;;;15.86;100.00;98913.66;6253190;22;20016;-74
2023/08/03 00:48:40;;;;;;;8.15;2.47;;;;;;;15.88;100.00;98916.56;6253005;22;20020;-73
2023/08/03 00:51:07;;;;;;;4.75;2.40;;;;;;;15.89;100.00;98920.69;6253475;22;20072;-74
2023/08/03 00:53:33;;;;;;;6.55;1.95;;;;;;;15.91;100.00;98928.22;6280678;22;20013;-74
2023/08/03 00:56:00;;;;;;;5.32;2.22;;;;;;;15.91;100.00;98931.63;6254066;22;20477;-74
2023/08/03 00:58:26;;;;;;;8.65;2.20;;;;;;;15.92;100.00;98935.75;6252571;22;20020;-74
2023/08/03 01:00:53;;;;;;;4.45;2.05;;;;;;;15.91;100.00;98936.97;6281129;22;20027;-74
2023/08/03 01:03:20;;;;;;;7.78;2.25;;;;;;;15.90;100.00;98937.50;6280457;22;20438;-74
2023/08/03 01:05:47;;;;;;;10.00;2.10;;;;;;;15.92;100.00;98951.13;6281210;22;20009;-74
2023/08/03 01:08:13;;;;;;;6.68;2.20;;;;;;;15.92;100.00;98943.78;6280995;22;20043;-74
2023/08/03 01:10:41;;;;;;;7.40;2.53;;;;;;;15.94;100.00;98951.31;6280523;22;20022;-74
2023/08/03 01:13:08;;;;;;;7.55;2.08;;;;;;;15.93;100.00;98953.28;6253245;22;20027;-74
2023/08/03 01:15:34;;;;;;;5.07;1.70;;;;;;;15.93;100.00;98957.94;6280159;22;20047;-74
2023/08/03 01:18:01;;;;;;;6.88;1.83;;;;;;;15.93;100.00;98958.66;6280691;22;20016;-74
2023/08/03 01:20:28;;;;;;;9.27;1.80;;;;;;;15.92;100.00;98964.53;6280420;22;20450;-74
2023/08/03 01:22:55;;;;;;;7.25;1.70;;;;;;;15.93;100.00;98974.03;6280866;22;20421;-74
2023/08/03 01:25:21;;;;;;;2.45;1.55;;;;;;;15.93;100.00;98976.72;6253018;22;20115;-74
2023/08/03 01:27:49;;;;;;;4.32;1.80;;;;;;;15.93;100.00;98977.44;6280571;22;20019;-74
2023/08/03 01:30:16;;;;;;;4.15;1.50;;;;;;;15.94;100.00;98980.84;6253823;22;20020;-74
2023/08/03 01:32:43;;;;;;;2.83;1.45;;;;;;;15.94;100.00;98986.94;6253227;22;20027;-74
2023/08/03 01:35:09;;;;;;;6.30;1.80;;;;;;;15.97;100.00;98990.53;6253304;22;20024;-74
2023/08/03 01:37:36;;;;;;;7.35;1.52;;;;;;;15.97;100.00;98985.91;6279999;22;20100;-74
2023/08/03 01:40:04;;;;;;;3.95;1.67;;;;;;;15.98;100.00;98994.66;6280972;22;20075;-74
2023/08/03 01:42:31;;;;;;;3.75;1.63;;;;;;;15.98;100.00;98998.06;6279699;22;20438;-74
2023/08/03 01:44:58;;;;;;;4.68;1.90;;;;;;;15.98;100.00;99002.72;6253402;22;20390;-74
2023/08/03 01:47:24;;;;;;;4.90;2.00;;;;;;;15.97;100.00;99004.69;6279860;22;20022;-74
2023/08/03 01:49:51;;;;;;;5.25;2.00;;;;;;;15.98;100.00;99008.09;6280760;22;20428;-74
2023/08/03 01:52:17;;;;;;;4.75;2.00;;;;;;;15.99;100.00;99009.53;6280212;22;20500;-74
2023/08/03 01:54:44;;;;;;;5.32;2.05;;;;;;;15.98;100.00;99016.84;6280778;22;20016;-74
2023/08/03 01:57:11;;;;;;;6.72;2.25;;;;;;;15.99;100.00;99012.22;6280287;22;20043;-74
2023/08/03 01:59:37;;;;;;;7.93;2.50;;;;;;;15.98;100.00;99024.19;6252599;22;20454;-74
2023/08/03 02:02:04;;;;;;;5.70;2.22;;;;;;;15.97;100.00;99028.09;6253145;22;20065;-74
2023/08/03 02:04:31;;;;;;;3.05;2.10;;;;;;;15.98;100.00;99034.91;6279887;22;20013;-75
2023/08/03 02:07:07;;;;;;;5.60;2.22;;;;;;;15.99;100.00;99033.69;6280633;22;20076;-74
2023/08/03 02:09:34;;;;;;;8.02;2.45;;;;;;;15.97;100.00;99033.47;6280025;22;20091;-74
2023/08/03 02:12:00;;;;;;;8.20;2.20;;;;;;;15.97;100.00;99036.16;6280034;22;20035;-74
2023/08/03 02:14:27;;;;;;;3.17;2.17;;;;;;;15.96;100.00;99040.81;6252326;22;20020;-74
2023/08/03 02:16:53;;;;;;;4.22;2.42;;;;;;;15.95;100.00;99044.00;6252987;22;20099;-74
2023/08/03 02:19:20;;;;;;;6.07;2.47;;;;;;;15.94;100.00;99040.59;6279740;22;20023;-74
2023/08/03 02:21:47;;;;;;;6.22;2.30;;;;;;;15.95;100.00;99034.00;6253213;22;20454;-74
2023/08/03 02:24:14;;;;;;;7.35;2.40;;;;;;;15.96;100.00;99042.78;6252969;22;20026;-74
2023/08/03 02:26:41;;;;;;;7.88;2.72;;;;;;;15.96;100.00;99045.44;6279409;22;20017;-74
2023/08/03 02:29:08;;;;;;;7.28;2.42;;;;;;;15.97;100.00;99052.97;6253902;22;20031;-74
2023/08/03 02:31:34;;;;;;;5.25;2.60;;;;;;;15.96;100.00;99048.13;6281177;22;20066;-75
2023/08/03 02:34:01;;;;;;;7.30;2.97;;;;;;;15.94;100.00;99051.34;6254396;22;20445;-74
2023/08/03 02:36:35;;;;;;;10.95;3.50;;;;;;;15.93;100.00;99052.56;6230056;22;20464;-74
2023/08/03 02:39:07;;;;;;;10.05;2.72;;;;;;;15.94;100.00;99047.94;6254731;22;20024;-74
2023/08/03 02:41:38;;;;;;;12.00;3.60;;;;;;;15.94;100.00;99051.34;6253076;22;20026;-75
2023/08/03 02:44:09;;;;;;;10.57;2.78;;;;;;;15.96;100.00;99056.91;6254179;22;20063;-74
2023/08/03 02:46:37;;;;;;;9.43;2.67;;;;;;;15.97;100.00;99061.03;6253401;22;20018;-75
2023/08/03 02:49:05;;;;;;;17.40;2.65;;;;;;;15.98;100.00;99053.72;6254303;22;20103;-75
2023/08/03 02:51:31;;;;;;;5.28;2.53;;;;;;;15.99;100.00;99057.84;6253610;22;20085;-74
2023/08/03 02:53:58;;;;;;;7.22;2.58;;;;;;;15.99;100.00;99055.16;6254299;22;20391;-74
2023/08/03 02:56:29;;;;;;;5.75;2.40;;;;;;;16.00;100.00;99057.28;6252870;22;20024;-74
2023/08/03 02:58:56;;;;;;;10.63;2.97;;;;;;;16.00;100.00;99051.94;6229198;22;20425;-75
2023/08/03 03:01:32;;;;;;;8.52;2.65;;;;;;;16.00;100.00;99051.19;6253634;22;20021;-75
2023/08/03 03:03:59;;;;;;;7.63;2.53;;;;;;;15.98;100.00;99061.75;6254251;22;20035;-75
2023/08/03 03:06:28;;;;;;;7.72;2.70;;;;;;;15.98;100.00;99059.78;6228440;22;20059;-75
2023/08/03 03:08:55;;;;;;;5.07;2.30;;;;;;;15.99;100.00;99058.53;6253598;22;20075;-75
2023/08/03 03:11:21;;;;;;;6.68;2.60;;;;;;;15.99;100.00;99063.91;6253674;22;20087;-75
2023/08/03 03:13:50;;;;;;;7.57;2.75;;;;;;;15.98;100.00;99057.13;6254210;22;20027;-75
2023/08/03 03:16:18;;;;;;;4.43;2.30;;;;;;;15.99;100.00;99061.22;6254349;22;20402;-74
2023/08/03 03:18:44;;;;;;;5.07;2.72;;;;;;;15.98;100.00;99062.47;6254192;22;20347;-75
2023/08/03 03:21:11;;;;;;;7.63;2.42;;;;;;;15.98;100.00;99067.84;6254077;22;20016;-74
2023/08/03 03:23:38;;;;;;;6.30;2.42;;;;;;;15.98;100.00;99069.81;6253092;22;20127;-74
2023/08/03 03:26:05;;;;;;;2.95;2.08;;;;;;;15.97;100.00;99071.06;6281728;22;20016;-74
2023/08/03 03:28:31;;;;;;;3.42;2.05;;;;;;;15.97;100.00;99071.78;6280985;22;20020;-75
2023/08/03 03:30:58;;;;;;;4.32;2.10;;;;;;;15.96;100.00;99072.28;6281882;22;20012;-74
2023/08/03 03:33:24;;;;;;;6.25;2.20;;;;;;;15.95;100.00;99066.19;6280892;22;20008;-75
2023/08/03 03:35:56;;;;;;;4.90;2.30;;;;;;;15.94;100.00;99075.47;6253924;22;20405;-75
2023/08/03 03:38:22;;;;;;;4.03;1.98;;;;;;;15.95;100.00;99073.53;6252594;22;20059;-75
2023/08/03 03:40:49;;;;;;;3.85;2.15;;;;;;;15.95;100.00;99084.97;6281541;22;20060;-74
2023/08/03 03:43:17;;;;;;;3.65;2.03;;;;;;;15.96;100.00;99078.38;6254045;22;20095;-74
2023/08/03 03:45:44;;;;;;;3.15;2.00;;;;;;;15.96;100.00;99085.69;6254097;22;20457;-74
2023/08/03 03:48:13;;;;;;;3.35;2.20;;;;;;;15.96;100.00;99096.44;6253856;22;20024;-74
2023/08/03 03:50:39;;;;;;;3.47;1.92;;;;;;;15.95;100.00;99090.34;6253040;22;20416;-74
2023/08/03 03:53:06;;;;;;;5.32;1.90;;;;;;;15.95;100.00;99101.09;6228442;22;20541;-74
2023/08/03 03:55:35;;;;;;;2.33;1.90;;;;;;;15.96;100.00;99094.47;6228193;22;20032;-74
2023/08/03 03:58:02;;;;;;;3.00;1.90;;;;;;;15.95;100.00;99097.69;6253969;22;20031;-74
2023/08/03 04:00:29;;;;;;;2.92;1.55;;;;;;;15.95;100.00;99103.03;6253172;22;20087;-74
2023/08/03 04:02:56;;;;;;;1.48;1.35;;;;;;;15.94;100.00;99115.00;6253957;22;20016;-74
2023/08/03 04:05:23;;;;;;;1.95;1.50;;;;;;;15.93;100.00;99111.59;6228040;22;20016;-74
2023/08/03 04:07:50;;;;;;;4.93;1.70;;;;;;;15.91;100.00;99122.13;6280776;22;20060;-74
2023/08/03 04:10:16;;;;;;;2.15;1.55;;;;;;;15.92;100.00;99122.84;6281397;22;20012;-74
2023/08/03 04:12:43;;;;;;;2.03;1.63;;;;;;;15.92;100.00;99130.91;6254327;22;20024;-74
2023/08/03 04:15:10;;;;;;;2.67;1.70;;;;;;;15.95;100.00;99130.59;6253848;22;20433;-74
2023/08/03 04:17:38;;;;;;;2.92;1.95;;;;;;;15.97;100.00;99143.50;6280735;22;20016;-74
2023/08/03 04:20:08;;;;;;;2.33;2.00;;;;;;;15.98;100.00;99144.94;6254059;22;20020;-74
2023/08/03 04:22:35;;;;;;;5.53;2.10;;;;;;;15.98;100.00;99147.63;6227350;22;20027;-75
2023/08/03 04:25:02;;;;;;;1.83;1.38;;;;;;;15.96;100.00;99148.16;6253774;22;20016;-74
2023/08/03 04:27:30;;;;;;;5.55;1.83;;;;;;;15.95;100.00;99159.41;6253016;22;20031;-74
2023/08/03 04:29:57;;;;;;;1.48;1.40;;;;;;;15.93;100.00;99161.88;6254096;22;20472;-74
2023/08/03 04:32:24;;;;;;;1.50;1.40;;;;;;;15.92;100.00;99157.75;6253363;22;20020;-74
2023/08/03 04:34:51;;;;;;;4.47;1.65;;;;;;;15.93;100.00;99164.56;6253966;22;20051;-74
2023/08/03 04:37:18;;;;;;;2.92;1.67;;;;;;;15.93;100.00;99159.19;6252481;22;20036;-74
2023/08/03 04:39:45;;;;;;;2.78;1.65;;;;;;;15.90;100.00;99165.56;6281185;22;20040;-74
2023/08/03 04:42:14;;;;;;;3.72;1.55;;;;;;;15.90;100.00;99173.63;6253758;22;20025;-74
2023/08/03 04:44:41;;;;;;;10.27;1.90;;;;;;;15.88;100.00;99176.81;6253075;22;20022;-75
2023/08/03 04:47:08;;;;;;;4.72;1.95;;;;;;;15.90;100.00;99179.00;6281186;22;20027;-75
2023/08/03 04:49:36;;;;;;;3.45;2.60;;;;;;;15.89;100.00;99183.63;6253069;22;20374;-75
2023/08/03 04:52:08;;;;;;;2.38;1.70;;;;;;;15.88;100.00;99189.50;6252298;22;20454;-75
2023/08/03 04:54:34;;;;;;;6.80;1.80;;;;;;;15.89;100.00;99188.28;6252931;22;20024;-75
2023/08/03 04:57:01;;;;;;;5.07;1.88;;;;;;;15.90;100.00;99195.09;6281210;22;20078;-74
2023/08/03 04:59:33;;;;;;;9.05;1.80;;;;;;;15.90;100.00;99195.81;6253317;22;20020;-74
2023/08/03 05:01:59;;;;;;;5.05;1.77;;;;;;;15.91;100.00;99205.31;6253753;22;20020;-74
2023/08/03 05:04:27;;;;;;;5.70;1.88;;;;;;;15.92;100.00;99201.41;6252856;22;20023;-74
2023/08/03 05:06:56;;;;;;;5.47;2.00;;;;;;;15.94;100.00;99200.88;6228196;22;20550;-74
2023/08/03 05:09:22;;;;;;;6.00;1.80;;;;;;;15.94;100.00;99201.59;6252836;22;20020;-74
2023/08/03 05:11:49;;;;;;;3.72;1.75;;;;;;;15.96;100.00;99204.50;6281197;22;20083;-74
2023/08/03 05:14:16;;;;;;;5.00;1.60;;;;;;;15.96;100.00;99209.16;6280970;22;20432;-74
2023/08/03 05:16:42;;;;;;;4.82;1.80;;;;;;;15.97;100.00;99205.22;6280603;22;20055;-74
2023/08/03 05:19:09;;;;;;;4.72;1.92;;;;;;;15.95;100.00;99215.75;6253680;22;20082;-74
2023/08/03 05:21:35;;;;;;;6.28;1.67;;;;;;;15.95;100.00;99215.75;6252338;22;20027;-74
2023/08/03 05:24:02;;;;;;;3.45;1.73;;;;;;;15.95;100.00;99226.50;6280650;22;20016;-74
2023/08/03 05:26:33;;;;;;;6.00;1.65;;;;;;;15.93;100.00;99224.31;6280350;22;20052;-74
2023/08/03 05:28:59;;;;;;;6.20;1.50;;;;;;;15.93;100.00;99231.63;6281077;22;20017;-73
2023/08/03 05:31:26;;;;;;;6.85;1.70;;;;;;;15.91;100.00;99237.53;6280196;22;20022;-75
2023/08/03 05:33:54;;;;;;;4.50;1.60;;;;;;;15.90;100.00;99238.75;6280168;22;20019;-74
2023/08/03 05:36:22;;;;;;;5.97;1.77;;;;;;;15.93;100.00;99245.78;6279924;22;20034;-73
2023/08/03 05:38:53;;;;;;;6.50;2.03;;;;;;;15.94;100.00;99241.13;6280902;22;20469;-73
2023/08/03 05:41:21;;;;;;;4.68;2.20;;;;;;;15.93;100.00;99245.06;6280232;22;20442;-73
2023/08/03 05:43:48;;;;;;;7.80;1.70;;;;;;;15.91;100.00;99250.22;6280694;22;20080;-74
2023/08/03 05:46:15;;;;;;;8.02;2.20;;;;;;;15.92;100.00;99252.38;6280528;22;20027;-74
2023/08/03 05:48:42;;;;;;;3.55;1.90;;;;;;;15.94;100.00;99252.59;6279401;22;20462;-74
2023/08/03 05:51:11;;;;;;;10.10;2.08;;;;;;;15.94;100.00;99260.66;6280552;22;20047;-74
2023/08/03 05:53:40;;;;;;;8.38;2.05;;;;;;;15.94;100.00;99267.97;6279743;22;20083;-73
2023/08/03 05:56:09;;;;;;;7.95;2.28;;;;;;;15.91;100.00;99275.09;6280657;22;20024;-74
2023/08/03 05:58:38;;;;;;;8.10;2.55;;;;;;;15.91;100.00;99280.44;6253691;22;20357;-74
2023/08/03 06:01:05;;;;;;;7.50;2.00;;;;;;;15.91;100.00;99277.78;6280668;22;20469;-73
2023/08/03 06:03:34;;;;;;;7.13;2.25;;;;;;;15.93;100.00;99285.31;6280111;22;20089;-74
2023/08/03 06:06:04;;;;;;;5.45;2.30;;;;;;;15.96;100.00;99289.66;6281976;22;20103;-75
2023/08/03 06:08:31;;;;;;;6.95;2.20;;;;;;;15.99;100.00;99292.03;6281429;22;20519;-74
2023/08/03 06:11:02;;;;;;;6.63;2.60;;;;;;;16.01;100.00;99294.19;6282008;22;20016;-74
2023/08/03 06:13:33;;;;;;;10.75;2.25;;;;;;;15.98;100.00;99301.34;6254285;22;20046;-75
2023/08/03 06:16:07;;;;;;;7.63;2.10;;;;;;;15.96;100.00;99305.75;6281814;22;20450;-75
2023/08/03 06:18:45;;;;;;;10.02;1.83;;;;;;;15.97;100.00;99302.56;6253324;22;20771;-74
2023/08/03 06:21:13;;;;;;;7.07;2.30;;;;;;;15.98;100.00;99308.66;6254862;22;20457;-75
2023/08/03 06:23:42;;;;;;;4.35;1.95;;;;;;;15.96;100.00;99311.13;6281286;22;20430;-76
2023/08/03 06:26:11;;;;;;;8.73;2.03;;;;;;;15.99;100.00;99316.19;6282088;22;20332;-74
2023/08/03 06:28:38;;;;;;;8.68;2.25;;;;;;;16.04;100.00;99319.28;6281271;22;20124;-73
2023/08/03 06:31:31;;;;;;;10.07;2.40;;;;;;;16.05;100.00;99318.78;6254245;22;20040;-74
2023/08/03 06:33:58;;;;;;;7.72;2.00;;;;;;;16.06;100.00;99322.91;6254142;22;20017;-73
2023/08/03 06:36:26;;;;;;;6.53;2.33;;;;;;;16.06;100.00;99325.59;6281087;22;20031;-74
2023/08/03 06:38:56;;;;;;;7.15;2.03;;;;;;;16.06;100.00;99327.56;6281827;22;20442;-75
2023/08/03 06:41:24;;;;;;;5.35;2.10;;;;;;;16.06;100.00;99335.59;6281223;22;20346;-74
2023/08/03 06:43:55;;;;;;;4.30;1.88;;;;;;;16.07;100.00;99337.78;6281819;22;20023;-74
2023/08/03 06:46:22;;;;;;;6.90;2.10;;;;;;;16.10;100.00;99341.41;6253385;22;20054;-75
2023/08/03 06:48:50;;;;;;;6.90;1.90;;;;;;;16.08;100.00;99341.91;6281699;22;20358;-75
2023/08/03 06:51:18;;;;;;;6.18;1.70;;;;;;;16.14;100.00;99344.53;6281296;22;20015;-76
2023/08/03 06:53:46;;;;;;;6.57;1.70;;;;;;;16.26;100.00;99343.13;6254500;22;20434;-76
2023/08/03 06:56:13;;;;;;;5.40;2.08;;;;;;;16.29;100.00;99348.19;6281779;22;20048;-77
2023/08/03 06:58:39;;;;;;;4.20;1.50;;;;;;;16.38;100.00;99354.44;6281115;22;20074;-76
2023/08/03 07:01:06;;;;;;;7.13;1.95;;;;;;;16.44;100.00;99347.00;6281209;22;20469;-76
2023/08/03 07:03:33;;;;;;;3.45;2.08;;;;;;;16.46;100.00;99352.56;6253495;22;20357;-76
2023/08/03 07:05:59;;;;;;;5.85;2.13;;;;;;;16.44;100.00;99353.09;6281573;22;20016;-75
2023/08/03 07:08:26;;;;;;;7.65;1.90;;;;;;;16.41;100.00;99358.75;6253925;22;20099;-75
2023/08/03 07:10:53;;;;;;;5.15;1.92;;;;;;;16.38;100.00;99359.81;6281589;22;20016;-76
2023/08/03 07:13:19;;;;;;;2.65;1.65;;;;;;;16.38;100.00;99362.50;6280835;22;20117;-75
2023/08/03 07:15:46;;;;;;;5.50;2.10;;;;;;;16.38;100.00;99360.53;6280434;22;20023;-74
2023/08/03 07:18:12;;;;;;;3.97;1.98;;;;;;;16.38;100.00;99365.91;6281618;22;20012;-75
2023/08/03 07:20:39;;;;;;;4.40;1.92;;;;;;;16.45;100.00;99372.59;6280919;22;20455;-76
2023/08/03 07:23:07;;;;;;;5.72;1.90;;;;;;;16.49;100.00;99375.72;6281648;22;20016;-76
2023/08/03 07:25:34;;;;;;;3.75;1.80;;;;;;;16.56;100.00;99386.59;6281030;22;20098;-75
2023/08/03 07:28:01;;;;;;;6.88;2.13;;;;;;;16.59;100.00;99382.16;6281924;22;20100;-76
2023/08/03 07:30:28;;;;;;;7.10;2.20;;;;;;;16.64;100.00;99390.16;6280356;22;20087;-77
2023/08/03 07:32:58;;;;;;;6.47;2.03;;;;;;;16.74;100.00;99389.78;6281726;22;20012;-76
2023/08/03 07:35:25;;;;;;;4.75;1.88;;;;;;;16.82;100.00;99396.69;6253924;22;20020;-77
2023/08/03 07:37:51;;;;;;;2.40;1.40;;;;;;;16.86;100.00;99407.88;6281537;22;20488;-76
2023/08/03 07:40:18;;;;;;;4.35;1.42;;;;;;;16.86;100.00;99413.25;6281147;22;20442;-76
2023/08/03 07:42:45;;;;;;;2.50;1.50;;;;;;;16.87;100.00;99422.75;6281706;22;20017;-76
2023/08/03 07:45:11;;;;;;;5.47;1.40;;;;;;;17.04;100.00;99429.81;6280818;22;20070;-76
2023/08/03 07:47:38;;;;;;;2.65;1.40;;;;;;;17.30;100.00;99419.06;6280504;22;20111;-76
2023/08/03 07:50:05;;;;;;;2.30;1.40;;;;;;;17.42;100.00;99433.78;6281248;22;20576;-76
2023/08/03 07:52:32;;;;;;;5.43;1.30;;;;;;;17.54;100.00;99439.69;6279920;22;20016;-76
2023/08/03 07:54:58;;;;;;;1.65;1.25;;;;;;;17.95;100.00;99441.81;6281419;22;20021;-77
2023/08/03 07:57:25;;;;;;;4.25;1.83;;;;;;;18.13;100.00;99445.59;6280533;22;20387;-78
2023/08/03 07:59:52;;;;;;;4.72;1.00;;;;;;;18.13;100.00;99454.41;6228023;22;20043;-76
2023/08/03 08:02:18;;;;;;;3.00;1.17;;;;;;;18.08;100.00;99460.63;6280398;22;20453;-76
2023/08/03 08:04:50;;;;;;;3.60;1.15;;;;;;;18.09;100.00;99472.13;6281447;22;20091;-75
2023/08/03 08:07:18;;;;;;;2.85;1.25;;;;;;;18.00;100.00;99482.06;6280978;22;20091;-76
2023/08/03 08:09:45;;;;;;;4.20;1.20;;;;;;;17.85;100.00;99481.19;6253580;22;20478;-76
2023/08/03 08:12:12;;;;;;;5.63;1.30;;;;;;;17.78;100.00;99495.97;6254307;22;20022;-75
2023/08/03 08:14:39;;;;;;;3.30;1.33;;;;;;;17.81;100.00;99499.59;6279796;22;20080;-78
2023/08/03 08:17:06;;;;;;;1.98;1.20;;;;;;;17.91;100.00;99519.47;6280941;22;20095;-77
2023/08/03 08:19:40;;;;;;;5.68;1.73;;;;;;;17.99;100.00;99514.94;6253234;22;20517;-74
2023/08/03 08:22:08;;;;;;;3.40;1.70;;;;;;;18.06;100.00;99525.03;6280795;22;20012;-75
2023/08/03 08:24:44;;;;;;;3.72;1.95;;;;;;;18.17;100.00;99534.88;6280844;22;20103;-74
2023/08/03 08:27:11;;;;;;;4.30;2.15;;;;;;;18.31;100.00;99541.69;6281379;22;20311;-75
2023/08/03 08:29:38;;;;;;;4.57;2.42;;;;;;;18.44;100.00;99549.72;6279964;22;20512;-75
2023/08/03 08:32:05;;;;;;;6.30;2.53;;;;;;;18.53;100.00;99553.97;6280874;22;20541;-73
2023/08/03 08:34:32;;;;;;;2.78;2.20;;;;;;;18.56;100.00;99567.13;6251051;22;20078;-75
2023/08/03 08:36:59;;;;;;;7.82;2.72;;;;;;;18.57;100.00;99562.44;6278009;22;20102;-73
2023/08/03 08:39:27;;;;;;;4.43;2.17;;;;;;;18.60;100.00;99578.34;6277960;22;20016;-75
2023/08/03 08:41:54;;;;;;;6.28;2.10;;;;;;;18.57;100.00;99582.03;6278578;22;20022;-73
2023/08/03 08:44:21;;;;;;;4.78;1.92;;;;;;;18.55;100.00;99589.91;6277464;22;20401;-73
2023/08/03 08:46:48;;;;;;;5.28;2.30;;;;;;;18.59;100.00;99593.03;6278440;22;20020;-74
2023/08/03 08:49:14;;;;;;;4.15;2.10;;;;;;;19.01;100.00;99603.19;6279877;22;20020;-74
2023/08/03 08:51:48;;;;;;;3.45;1.77;;;;;;;19.63;100.00;99609.31;6228234;22;20020;-75
2023/08/03 08:54:17;;;;;;;6.18;2.40;;;;;;;19.91;100.00;99610.59;6280556;22;20020;-74
2023/08/03 08:56:45;;;;;;;4.65;2.28;;;;;;;19.93;99.42;99622.31;6280795;22;20438;-75
2023/08/03 08:59:14;;;;;;;6.45;3.30;;;;;;;19.63;99.24;99627.47;6280585;22;20016;-75
2023/08/03 09:01:49;;;;;;;7.85;2.95;;;;;;;19.46;100.00;99633.28;6280926;22;20022;-75
2023/08/03 09:04:29;;;;;;;4.55;2.92;;;;;;;19.26;100.00;99636.69;6280975;22;20016;-74
2023/08/03 09:06:59;;;;;;;6.93;3.17;;;;;;;19.12;100.00;99644.13;6280991;22;20016;-75
2023/08/03 09:09:28;;;;;;;9.38;3.30;;;;;;;19.40;100.00;99648.16;6253201;22;20012;-75
2023/08/03 09:11:58;;;;;;;6.30;3.05;;;;;;;19.89;100.00;99665.13;6280181;22;20022;-75
2023/08/03 09:14:26;;;;;;;6.47;2.70;;;;;;;19.92;97.81;99650.56;6280542;22;20469;-74
2023/08/03 09:16:52;;;;;;;7.45;2.83;;;;;;;19.87;99.66;99664.22;6280714;22;20099;-75
2023/08/03 09:19:36;;;;;;;7.75;2.83;;;;;;;20.02;99.37;99663.56;6280318;22;20074;-75
2023/08/03 09:22:03;;;;;;;5.00;2.50;;;;;;;20.18;98.41;99673.25;6280991;22;20012;-75
2023/08/03 09:24:30;;;;;;;7.75;2.53;;;;;;;20.16;95.18;99679.16;6280016;22;20071;-75
2023/08/03 09:26:59;;;;;;;4.68;2.45;;;;;;;20.17;95.89;99677.91;6280362;22;20016;-75
2023/08/03 09:29:33;;;;;;;3.97;1.80;;;;;;;20.39;91.91;99700.97;6280329;22;20062;-76
2023/08/03 09:32:05;;;;;;;6.35;2.45;;;;;;;20.75;91.50;99702.94;6280982;22;20016;-75
2023/08/03 09:34:44;;;;;;;3.28;2.10;;;;;;;21.09;88.53;99702.69;6280004;22;20023;-75
2023/08/03 09:37:12;;;;;;;2.40;1.95;;;;;;;21.20;90.09;99703.06;6252927;22;20046;-75
2023/08/03 09:39:52;;;;;;;3.70;1.80;;;;;;;21.43;89.65;99713.97;6279887;22;20442;-75
2023/08/03 09:42:21;;;;;;;3.08;1.80;;;;;;;21.37;85.56;99726.94;6279492;22;20087;-75
2023/08/03 09:44:53;;;;;;;4.75;2.17;;;;;;;21.10;85.39;99740.03;6254298;22;20012;-75
2023/08/03 09:47:20;;;;;;;6.53;2.40;;;;;;;20.64;87.89;99766.88;6252374;22;20020;-75
2023/08/03 09:49:47;;;;;;;11.32;2.10;;;;;;;19.91;91.00;99773.38;6253130;22;20450;-75
2023/08/03 09:52:20;;;;;;;4.57;1.75;;;;;;;19.54;99.87;99766.34;6279975;22;20012;-75
2023/08/03 09:55:13;;;;;;;4.43;1.70;;;;;;;19.39;98.05;99773.53;6257682;22;20024;-74
2023/08/03 09:57:43;;;;;;;5.70;1.73;;;;;;;19.23;96.62;99778.03;6280029;22;20016;-73
2023/08/03 10:00:12;;;;;;;3.78;1.92;;;;;;;19.25;100.00;99781.66;6280781;22;20072;-74
2023/08/03 10:03:09;;;;;;;4.07;2.00;;;;;;;19.49;100.00;99777.25;6279554;22;20070;-74
2023/08/03 10:05:40;;;;;;;3.05;1.90;;;;;;;20.01;100.00;99770.91;6237709;22;20024;-74
2023/08/03 10:08:22;;;;;;;5.43;2.17;;;;;;;20.50;100.00;99773.63;6254047;22;20103;-74
2023/08/03 10:10:51;;;;;;;6.38;2.10;;;;;;;20.64;99.54;99775.00;6279877;22;20047;-75
2023/08/03 10:13:18;;;;;;;2.70;2.20;;;;;;;21.16;100.00;99780.47;6279939;22;20016;-75
2023/08/03 10:15:45;;;;;;;2.53;1.95;;;;;;;21.42;98.34;99776.78;6280366;22;20020;-74
2023/08/03 10:18:13;;;;;;;2.83;1.90;;;;;;;21.46;97.83;99782.56;6280147;22;20020;-74
2023/08/03 10:20:40;;;;;;;4.47;2.10;;;;;;;21.43;94.05;99786.34;6279768;22;20013;-75
2023/08/03 10:23:16;;;;;;;6.18;2.00;;;;;;;21.17;91.11;99793.47;6280076;22;20421;-74
2023/08/03 10:25:52;;;;;;;9.30;3.17;;;;;;;20.75;95.84;99817.25;6279687;22;20024;-74
2023/08/03 10:28:20;;;;;;;3.55;2.03;;;;;;;20.15;93.84;99807.41;6279540;22;20015;-74
2023/08/03 10:31:11;;;;;;;3.90;1.55;;;;;;;19.72;95.18;99812.59;6280188;22;20472;-74
2023/08/03 10:33:50;;;;;;;3.72;1.70;;;;;;;19.53;95.81;99824.28;6279441;22;20024;-74
2023/08/03 10:36:33;;;;;;;4.57;1.67;;;;;;;19.50;97.78;99836.09;6280099;22;20477;-74
2023/08/03 10:39:04;;;;;;;5.63;1.80;;;;;;;19.60;99.81;99837.13;6279429;22;20413;-74
2023/08/03 10:41:39;;;;;;;3.63;1.97;;;;;;;19.83;99.63;99847.44;6279378;22;20013;-74
2023/08/03 10:44:05;;;;;;;4.45;2.20;;;;;;;19.97;99.21;99851.56;6280343;22;20095;-75
2023/08/03 10:46:40;;;;;;;4.30;1.73;;;;;;;19.92;99.12;99863.22;6279377;22;20074;-75
2023/08/03 10:49:19;;;;;;;2.50;1.60;;;;;;;19.83;98.40;99860.94;6280299;22;20019;-75
2023/08/03 10:51:54;;;;;;;3.78;1.42;;;;;;;19.79;98.42;99874.78;6281149;22;20012;-74
2023/08/03 10:54:31;;;;;;;3.13;1.77;;;;;;;19.83;99.36;99882.56;6252827;22;20453;-74
2023/08/03 10:57:08;;;;;;;2.00;1.42;;;;;;;19.80;98.16;99892.44;6280912;22;20017;-75
2023/08/03 10:59:38;;;;;;;7.80;1.55;;;;;;;19.84;97.24;99903.63;6280816;22;20043;-77
2023/08/03 11:02:10;;;;;;;3.25;1.50;;;;;;;20.05;96.06;99908.34;6281701;22;20457;-78
2023/08/03 11:04:37;;;;;;;4.75;1.70;;;;;;;20.46;93.45;99910.38;6280610;22;20528;-75
2023/08/03 11:07:04;;;;;;;3.65;1.45;;;;;;;20.75;92.42;99906.50;6281233;22;20066;-75
2023/08/03 11:09:31;;;;;;;4.00;1.45;;;;;;;20.63;89.77;99910.72;6280299;22;20016;-75
2023/08/03 11:11:57;;;;;;;3.67;1.58;;;;;;;20.32;89.70;99925.91;6254392;22;20047;-75
2023/08/03 11:14:24;;;;;;;10.65;1.80;;;;;;;20.11;89.25;99930.56;6280620;22;20095;-75
2023/08/03 11:16:51;;;;;;;4.10;1.55;;;;;;;19.94;88.88;99941.75;6281342;22;20409;-75
2023/08/03 11:19:18;;;;;;;7.10;1.70;;;;;;;19.76;89.03;99946.03;6281032;22;20017;-75
2023/08/03 11:21:45;;;;;;;4.75;1.52;;;;;;;19.50;89.77;99967.63;6281551;22;20477;-73
2023/08/03 11:24:11;;;;;;;1.90;1.30;;;;;;;19.20;91.85;99965.94;6280541;22;20020;-76
2023/08/03 11:26:38;;;;;;;6.57;1.45;;;;;;;19.18;91.73;99975.81;6280216;22;20649;-76
2023/08/03 11:29:06;;;;;;;3.90;1.30;;;;;;;19.18;91.55;99976.53;6281295;22;20019;-79
2023/08/03 11:31:33;;;;;;;4.65;1.35;;;;;;;19.29;92.42;99981.00;6280696;22;20468;-77
2023/08/03 11:34:00;;;;;;;2.75;1.45;;;;;;;19.45;90.96;99982.69;6253324;22;20486;-77